Aérodrome :
LOGIN :

S'inscrire | Disclaimer

   EN    FR    IT 

 










Légende :    VFR   VFR Marginal   IFR   IFR Intensif   IFR Très Intensif
Visi : 
Plafond : 
>= 8 km
>= 3000ft
5 à 8 km
1000 à 3000 ft
1500m à 5 km
500 à 1000 ft
800 à 1500m
200 à 500 ft
< 800m
< 200 ft
Symboles :   Orages  Brouillard  Fortes neiges  Fortes précipitations  Vent > 20 kt
SIGMETs :   Divers  Orages  Givrage  Turbulence  Onde Orograph.  Cendres Volcan.






- Altitude de l'aérodrome : 362 ft
- Code IATA : WAW


EPWA - Warsaw Okecie

DERNIER METAR :
  • 251300Z 32009KT 4600 -SN BR BKN008 BKN016 01/M00 Q0998 TEMPO 3000 SN

METARs EXPIRÉS :
  • 251230Z 32008KT 9000 -SN SCT009 BKN013 01/M01 Q0998 TEMPO BKN010
  • 251200Z 31008KT 9999 -SN BKN012 01/M01 Q0998 TEMPO BKN010
  • 251130Z 33009KT 9999 BKN012 01/M01 Q0998 TEMPO BKN010
  • 251100Z 33007KT 9999 -SN BKN012 01/M01 Q0998 NOSIG
  • 251030Z 32006KT 9999 BKN014 01/M01 Q0998 NOSIG

TAF TAF EPWA
Valide du 25 à 12h jusqu'au 26 à 12h UTC


251130Z 2512/2612 33010KT 9000 -SN BKN011
BECMG 2512/2515 4000 -SN BR BKN007
TEMPO 2514/2521 2000 SN BKN003
PROB40
TEMPO 2600/2603 30015G28KT BKN012
BECMG 2603/2606 27010KT BKN018
TEMPO 2603/2612 28018G31KT



MET'MAP, la Météo Aéronautique d'un coup d'oeil ! - Copyright ORBIFLY Décembre 2007 - Disclaimer

ORBIFLY MET'MAP TEAM :

Programmation & Développement : Alexandra Zaïnal
Sur une idée originale de : Baudouin d'Aumeries
Assistance à la programmation : Marc-Olivier Méhu
Soutien technique & logistique : Manuel Goepfert

Contact : metmap@orbifly.com




SOURCES & CREDITS :

   NOAA